Wells, Maine
Current Conditions -  °F | °C
As of 5:15 PM on Tuesday 25 Nov 2014 (Local Time) from KSFM Reporting Station
Clear Clear  
Wind Chill: 52°   Ceiling: Unl
Heat Index: 52°   Visibility: 10mi
Dew Point: 25°   Wind: 13mph
Humidity: 35%   Direction: 260°W
Pressure: 29.92"   Gusts: 18mph
Location:  43.28°N, 70.58°W
Report Text: KSFM 252215Z AUTO 26011G16KT 10SM CLR 11/M04 A2992 RMK AO1
Loading
Personal Weather Stations






























Interactive Weather Map New forecast layout! Learn more

10-Day Weather Forecast

Advertisements
Track Severe Weather on mobile